Time;durP1;ratioP1;P1;durP2;ratioP2;P2;SDS_P1;SDS_P2;PMS_P1;PMS_P2;Temp;Humidity;BMP_temperature;BMP_pressure;BME280_temperature;BME280_humidity;BME280_pressure;Samples;Min_cycle;Max_cycle;Signal;HPM_P1;HPM_P2
2021/10/04 00:00:05;;;;;;;12.13;10.00;;;;;;;16.82;nan;100430.94;5031824;28;20423;-81
2021/10/04 00:02:32;;;;;;;12.02;9.60;;;;;;;16.76;nan;100428.56;5064126;28;20051;-81
2021/10/04 00:04:59;;;;;;;13.93;9.60;;;;;;;16.87;nan;100438.69;5036492;28;20040;-81
2021/10/04 00:07:26;;;;;;;12.63;9.70;;;;;;;16.76;nan;100444.56;5044098;28;20040;-81
2021/10/04 00:09:52;;;;;;;15.05;10.43;;;;;;;16.81;nan;100444.34;5069362;28;20032;-80
2021/10/04 00:12:19;;;;;;;11.55;8.73;;;;;;;16.68;nan;100448.53;5037234;28;20502;-82
2021/10/04 00:14:46;;;;;;;12.68;9.52;;;;;;;16.69;nan;100452.97;5056919;28;20062;-80
2021/10/04 00:17:13;;;;;;;13.57;9.88;;;;;;;16.63;nan;100450.53;5069393;28;20085;-80
2021/10/04 00:19:40;;;;;;;14.82;9.98;;;;;;;16.68;nan;100452.06;5047847;28;20575;-83
2021/10/04 00:22:07;;;;;;;13.43;9.55;;;;;;;16.70;nan;100458.22;5046491;28;20036;-81
2021/10/04 00:24:34;;;;;;;13.07;9.25;;;;;;;16.74;nan;100456.28;5074197;28;20420;-83
2021/10/04 00:27:01;;;;;;;12.35;9.45;;;;;;;16.69;nan;100467.16;5065525;22;20052;-84
2021/10/04 00:29:29;;;;;;;13.63;10.00;;;;;;;16.69;nan;100472.50;5007668;28;20102;-86
2021/10/04 00:31:56;;;;;;;11.82;8.95;;;;;;;16.80;nan;100470.16;5017210;28;20159;-86
2021/10/04 00:34:23;;;;;;;12.90;9.18;;;;;;;16.83;nan;100469.16;5008184;28;20040;-84
2021/10/04 00:36:50;;;;;;;11.75;9.65;;;;;;;16.93;nan;100477.56;5012324;28;20791;-86
2021/10/04 00:39:16;;;;;;;12.32;8.40;;;;;;;16.91;nan;100477.66;5017186;28;20044;-86
2021/10/04 00:41:43;;;;;;;11.27;9.10;;;;;;;16.91;nan;100474.97;5002578;28;20048;-84
2021/10/04 00:44:10;;;;;;;12.50;9.85;;;;;;;16.87;nan;100492.06;5025627;28;20640;-84
2021/10/04 00:46:37;;;;;;;11.07;9.02;;;;;;;16.89;nan;100490.19;5010180;28;20051;-83
2021/10/04 00:49:05;;;;;;;12.30;9.57;;;;;;;16.86;nan;100487.66;5008939;28;20048;-83
2021/10/04 00:51:31;;;;;;;12.80;9.27;;;;;;;16.84;nan;100498.44;5015285;28;20045;-84
2021/10/04 00:53:58;;;;;;;14.15;9.20;;;;;;;16.84;nan;100494.91;5001488;28;20090;-84
2021/10/04 00:56:25;;;;;;;12.48;9.23;;;;;;;16.81;nan;100492.34;5029525;28;20045;-84
2021/10/04 00:58:52;;;;;;;14.65;9.70;;;;;;;16.86;nan;100488.53;5026564;28;20063;-83
2021/10/04 01:01:23;;;;;;;13.68;9.32;;;;;;;16.85;nan;100508.16;5014390;28;20045;-84
2021/10/04 01:03:50;;;;;;;13.50;9.95;;;;;;;16.80;nan;100510.16;5017778;28;20063;-85
2021/10/04 01:06:17;;;;;;;14.45;9.07;;;;;;;16.73;nan;100511.44;5008801;28;20041;-85
2021/10/04 01:08:43;;;;;;;12.18;8.95;;;;;;;16.70;nan;100508.91;5032529;28;20501;-84
2021/10/04 01:11:10;;;;;;;11.93;9.18;;;;;;;16.65;nan;100502.91;4997859;28;20048;-83
2021/10/04 01:13:37;;;;;;;13.00;8.68;;;;;;;16.66;nan;100507.28;5010084;28;20073;-84
2021/10/04 01:16:04;;;;;;;12.00;9.43;;;;;;;16.62;nan;100516.38;5016045;28;20136;-83
2021/10/04 01:18:31;;;;;;;11.80;8.73;;;;;;;16.60;nan;100508.44;5005014;28;20029;-84
2021/10/04 01:20:58;;;;;;;10.85;8.73;;;;;;;16.56;nan;100505.97;5030123;28;20037;-83
2021/10/04 01:23:28;;;;;;;12.20;8.63;;;;;;;16.52;nan;100499.06;5009706;28;20037;-83
2021/10/04 01:25:55;;;;;;;11.63;9.27;;;;;;;16.66;nan;100501.09;5031002;28;20036;-84
2021/10/04 01:28:23;;;;;;;13.13;8.63;;;;;;;16.58;nan;100512.13;5020129;28;20136;-83
2021/10/04 01:30:49;;;;;;;12.55;9.18;;;;;;;16.52;nan;100512.41;5006440;28;20045;-83
2021/10/04 01:33:17;;;;;;;13.90;8.98;;;;;;;16.52;nan;100521.28;5004989;28;20136;-84
2021/10/04 01:35:44;;;;;;;12.00;8.23;;;;;;;16.45;nan;100535.81;5006574;28;20041;-84
2021/10/04 01:38:10;;;;;;;10.63;7.88;;;;;;;16.40;nan;100534.34;5021849;28;20041;-84
2021/10/04 01:40:39;;;;;;;12.20;9.00;;;;;;;16.33;nan;100539.06;5012793;28;20037;-84
2021/10/04 01:43:06;;;;;;;10.73;8.30;;;;;;;16.32;nan;100545.34;5027099;28;20037;-84
2021/10/04 01:45:33;;;;;;;11.30;8.25;;;;;;;16.30;nan;100555.19;5023662;28;20094;-84
2021/10/04 01:47:59;;;;;;;12.07;8.43;;;;;;;16.29;nan;100561.47;5016076;28;20032;-83
2021/10/04 01:50:28;;;;;;;10.52;8.00;;;;;;;16.26;nan;100554.47;5009351;28;20044;-84
2021/10/04 01:52:55;;;;;;;8.90;6.72;;;;;;;16.19;nan;100550.34;5002299;28;20551;-84
2021/10/04 01:55:22;;;;;;;11.23;8.23;;;;;;;16.20;nan;100561.88;4995758;28;20041;-84
2021/10/04 01:57:50;;;;;;;9.60;7.60;;;;;;;16.14;nan;100559.50;5004590;28;20038;-84
2021/10/04 02:00:18;;;;;;;10.82;8.25;;;;;;;16.14;nan;100567.47;5012553;28;20446;-84
2021/10/04 02:02:49;;;;;;;9.95;7.82;;;;;;;16.16;nan;100573.63;5009501;28;20578;-84
2021/10/04 02:05:17;;;;;;;10.65;8.15;;;;;;;16.10;nan;100580.09;4999531;28;20049;-84
2021/10/04 02:07:43;;;;;;;10.07;7.35;;;;;;;16.07;nan;100587.38;5006573;28;20460;-83
2021/10/04 02:10:13;;;;;;;10.05;7.25;;;;;;;16.05;nan;100590.09;5025488;28;20048;-83
2021/10/04 02:12:41;;;;;;;9.70;6.90;;;;;;;15.98;nan;100599.31;5006857;28;20530;-84
2021/10/04 02:15:08;;;;;;;9.23;7.13;;;;;;;15.93;nan;100596.81;5008327;28;20045;-83
2021/10/04 02:17:36;;;;;;;9.88;7.65;;;;;;;15.89;nan;100605.00;5014673;28;20033;-83
2021/10/04 02:20:05;;;;;;;9.48;6.47;;;;;;;15.87;nan;100604.22;5020517;28;20413;-83
2021/10/04 02:22:32;;;;;;;11.65;7.55;;;;;;;15.84;nan;100602.56;5015604;28;20048;-82
2021/10/04 02:24:59;;;;;;;9.27;7.20;;;;;;;15.79;nan;100607.19;5042235;28;20128;-83
2021/10/04 02:27:25;;;;;;;10.02;7.88;;;;;;;15.81;nan;100613.34;5026607;28;20045;-82
2021/10/04 02:29:52;;;;;;;10.40;7.85;;;;;;;15.76;nan;100620.66;5013396;28;20083;-83
2021/10/04 02:32:19;;;;;;;10.25;7.65;;;;;;;15.63;nan;100625.63;5000551;28;20049;-83
2021/10/04 02:34:46;;;;;;;9.50;6.80;;;;;;;15.59;nan;100625.81;5001738;28;20045;-82
2021/10/04 02:37:12;;;;;;;9.05;7.00;;;;;;;15.59;nan;100623.13;4999889;28;20505;-82
2021/10/04 02:39:40;;;;;;;9.82;7.18;;;;;;;15.48;nan;100621.78;5000396;28;20049;-83
2021/10/04 02:42:07;;;;;;;11.90;7.78;;;;;;;15.53;nan;100626.91;5007383;28;20076;-82
2021/10/04 02:44:33;;;;;;;10.32;7.53;;;;;;;15.43;nan;100638.88;5000840;28;20060;-83
2021/10/04 02:47:00;;;;;;;9.77;7.45;;;;;;;15.41;nan;100643.41;4998213;28;20071;-83
2021/10/04 02:49:27;;;;;;;9.93;7.10;;;;;;;15.38;nan;100646.16;5021835;28;20052;-83
2021/10/04 02:51:54;;;;;;;9.68;6.75;;;;;;;15.33;nan;100641.03;5035915;28;20735;-83
2021/10/04 02:54:20;;;;;;;9.52;7.10;;;;;;;15.27;nan;100643.09;5021193;28;20609;-83
2021/10/04 02:56:47;;;;;;;10.02;7.03;;;;;;;15.28;nan;100655.47;5025115;28;20048;-82
2021/10/04 02:59:15;;;;;;;10.05;7.15;;;;;;;15.26;nan;100654.66;5032974;28;20052;-82
2021/10/04 03:01:42;;;;;;;8.32;6.85;;;;;;;15.23;nan;100662.78;5010574;28;20590;-82
2021/10/04 03:04:09;;;;;;;10.68;7.25;;;;;;;15.24;nan;100664.50;5012356;28;20128;-82
2021/10/04 03:06:36;;;;;;;8.73;6.82;;;;;;;15.20;nan;100663.75;4997394;28;20085;-83
2021/10/04 03:09:05;;;;;;;8.80;6.95;;;;;;;15.23;nan;100665.44;5033443;28;20507;-82
2021/10/04 03:11:34;;;;;;;9.48;6.78;;;;;;;15.22;nan;100685.88;5019974;28;20434;-83
2021/10/04 03:14:01;;;;;;;8.07;6.35;;;;;;;15.18;nan;100687.75;4999393;28;20044;-83
2021/10/04 03:16:27;;;;;;;11.15;6.90;;;;;;;15.17;nan;100679.84;5000255;28;20086;-83
2021/10/04 03:18:54;;;;;;;8.95;7.20;;;;;;;15.12;nan;100685.31;5022042;28;20059;-83
2021/10/04 03:21:21;;;;;;;9.13;7.05;;;;;;;15.12;nan;100695.97;5034066;28;20055;-82
2021/10/04 03:23:48;;;;;;;9.95;7.32;;;;;;;15.15;nan;100698.53;5034293;28;20036;-83
2021/10/04 03:26:14;;;;;;;6.82;5.10;;;;;;;15.17;nan;100702.00;5008212;28;20052;-83
2021/10/04 03:28:41;;;;;;;7.78;5.43;;;;;;;15.15;nan;100713.63;5015252;28;20044;-83
2021/10/04 03:31:08;;;;;;;7.07;5.38;;;;;;;15.15;nan;100718.97;5008022;28;20102;-83
2021/10/04 03:33:35;;;;;;;7.30;5.05;;;;;;;15.19;nan;100717.91;5004852;28;20067;-82
2021/10/04 03:36:03;;;;;;;7.22;4.97;;;;;;;15.12;nan;100730.56;5023304;28;20117;-82
2021/10/04 03:38:30;;;;;;;5.82;4.75;;;;;;;15.10;nan;100728.91;4999031;28;20037;-83
2021/10/04 03:40:57;;;;;;;6.45;4.97;;;;;;;15.05;nan;100734.41;5024389;28;20040;-83
2021/10/04 03:43:24;;;;;;;6.35;4.60;;;;;;;15.03;nan;100738.91;5004806;28;20052;-83
2021/10/04 03:45:51;;;;;;;6.45;4.80;;;;;;;15.08;nan;100746.72;5000320;28;20097;-83
2021/10/04 03:48:18;;;;;;;8.00;5.30;;;;;;;15.02;nan;100742.50;5012010;28;20037;-83
2021/10/04 03:50:45;;;;;;;6.68;5.22;;;;;;;14.96;nan;100744.50;5016649;28;20041;-83
2021/10/04 03:53:12;;;;;;;6.82;4.95;;;;;;;14.90;nan;100753.59;5017487;28;20097;-83
2021/10/04 03:55:39;;;;;;;6.72;4.75;;;;;;;14.85;nan;100766.19;5011922;28;20059;-83
2021/10/04 03:58:05;;;;;;;5.75;4.00;;;;;;;14.86;nan;100765.25;5017697;28;20094;-83
2021/10/04 04:00:32;;;;;;;4.35;3.30;;;;;;;14.85;nan;100760.88;5017217;28;20635;-83
2021/10/04 04:02:59;;;;;;;3.25;2.72;;;;;;;14.78;nan;100762.00;5017697;28;20073;-83
2021/10/04 04:05:26;;;;;;;4.55;3.00;;;;;;;14.72;nan;100756.94;5006991;28;20032;-82
2021/10/04 04:07:53;;;;;;;3.10;2.40;;;;;;;14.74;nan;100765.72;5008670;28;20048;-83
2021/10/04 04:10:20;;;;;;;3.28;2.55;;;;;;;14.68;nan;100768.59;5028218;28;20037;-83
2021/10/04 04:12:46;;;;;;;3.08;2.55;;;;;;;14.69;nan;100781.81;5018017;28;20045;-82
2021/10/04 04:15:14;;;;;;;3.90;2.10;;;;;;;14.64;nan;100791.78;5027109;28;20192;-83
2021/10/04 04:17:40;;;;;;;3.17;2.15;;;;;;;14.60;nan;100795.44;5025025;28;20140;-82
2021/10/04 04:20:08;;;;;;;2.40;1.70;;;;;;;14.45;nan;100794.19;5005758;28;20139;-84
2021/10/04 04:22:35;;;;;;;2.22;1.50;;;;;;;14.46;nan;100792.38;4998910;28;20744;-84
2021/10/04 04:25:04;;;;;;;2.10;1.60;;;;;;;14.43;nan;100782.72;5018666;28;20219;-84
2021/10/04 04:27:33;;;;;;;2.55;1.63;;;;;;;14.41;nan;100789.88;5000766;28;20041;-83
2021/10/04 04:30:01;;;;;;;2.22;1.73;;;;;;;14.39;nan;100786.41;4998670;28;20050;-85
2021/10/04 04:32:28;;;;;;;2.47;1.50;;;;;;;14.37;nan;100793.53;5029948;28;20045;-84
2021/10/04 04:34:55;;;;;;;2.33;1.65;;;;;;;14.37;nan;100793.53;5038535;28;20041;-83
2021/10/04 04:37:21;;;;;;;2.35;1.92;;;;;;;14.43;nan;100803.97;5009082;28;20047;-83
2021/10/04 04:39:48;;;;;;;2.50;1.30;;;;;;;14.35;nan;100811.34;5030419;28;20032;-85
2021/10/04 04:42:15;;;;;;;2.05;1.67;;;;;;;14.24;nan;100795.75;5033599;28;20170;-82
2021/10/04 04:44:42;;;;;;;2.13;1.40;;;;;;;14.24;nan;100800.19;4999563;28;20049;-84
2021/10/04 04:47:08;;;;;;;2.45;1.60;;;;;;;14.16;nan;100800.47;5004020;28;20044;-84
2021/10/04 04:49:35;;;;;;;2.22;1.40;;;;;;;14.17;nan;100801.31;5005872;28;20041;-83
2021/10/04 04:52:02;;;;;;;1.75;1.50;;;;;;;14.13;nan;100802.34;5001975;28;20904;-84
2021/10/04 04:54:29;;;;;;;1.27;1.17;;;;;;;14.16;nan;100810.22;5016928;28;20107;-83
2021/10/04 04:56:59;;;;;;;1.90;1.40;;;;;;;14.13;nan;100816.50;5009315;28;20059;-81
2021/10/04 04:59:25;;;;;;;1.63;1.30;;;;;;;14.12;nan;100821.84;5021283;28;20051;-81
2021/10/04 05:01:52;;;;;;;1.58;1.23;;;;;;;14.06;nan;100815.84;5003640;28;20072;-82
2021/10/04 05:04:19;;;;;;;1.58;1.20;;;;;;;14.10;nan;100821.91;5017491;28;20045;-83
2021/10/04 05:06:46;;;;;;;1.92;1.30;;;;;;;14.06;nan;100830.91;5020436;28;20045;-83
2021/10/04 05:09:14;;;;;;;1.23;1.13;;;;;;;14.04;nan;100835.38;5033640;28;20098;-83
2021/10/04 05:11:42;;;;;;;1.88;1.50;;;;;;;13.97;nan;100844.47;5017061;28;20416;-81
2021/10/04 05:14:09;;;;;;;2.38;1.20;;;;;;;14.01;nan;100839.00;5001350;28;20452;-83
2021/10/04 05:16:36;;;;;;;1.15;1.00;;;;;;;13.95;nan;100827.69;5018962;28;20204;-83
2021/10/04 05:19:02;;;;;;;1.00;0.80;;;;;;;13.96;nan;100838.31;5026791;28;20072;-83
2021/10/04 05:21:29;;;;;;;1.20;0.90;;;;;;;13.87;nan;100849.19;5012156;28;20044;-83
2021/10/04 05:23:56;;;;;;;1.20;1.10;;;;;;;13.85;nan;100864.31;5020153;28;20069;-83
2021/10/04 05:26:23;;;;;;;1.02;0.95;;;;;;;13.84;nan;100867.00;5020777;28;20048;-82
2021/10/04 05:28:49;;;;;;;1.00;0.88;;;;;;;13.79;nan;100876.00;5017893;28;20044;-81
2021/10/04 05:31:16;;;;;;;1.40;0.98;;;;;;;13.78;nan;100881.34;5002398;28;20059;-84
2021/10/04 05:33:43;;;;;;;1.70;0.90;;;;;;;13.83;nan;100883.88;4998689;28;20057;-82
2021/10/04 05:36:10;;;;;;;1.38;1.10;;;;;;;13.76;nan;100881.38;5044484;28;20399;-82
2021/10/04 05:38:37;;;;;;;2.50;1.98;;;;;;;13.76;nan;100870.78;5021077;28;20056;-83
2021/10/04 05:41:05;;;;;;;1.58;1.05;;;;;;;13.76;nan;100875.22;5023013;28;20540;-82
2021/10/04 05:43:34;;;;;;;0.98;0.80;;;;;;;13.73;nan;100873.53;5001054;28;20049;-83
2021/10/04 05:46:02;;;;;;;1.27;0.80;;;;;;;13.74;nan;100880.56;5036324;28;20090;-83
2021/10/04 05:48:29;;;;;;;1.55;0.90;;;;;;;13.76;nan;100885.84;5024419;28;20044;-82
2021/10/04 05:50:56;;;;;;;1.17;1.00;;;;;;;13.78;nan;100884.00;5035873;28;20044;-82
2021/10/04 05:53:22;;;;;;;1.27;1.00;;;;;;;13.75;nan;100890.28;5041657;28;20045;-83
2021/10/04 05:55:50;;;;;;;2.25;1.30;;;;;;;13.74;nan;100882.38;5039381;28;20533;-83
2021/10/04 05:58:16;;;;;;;2.88;2.00;;;;;;;13.73;nan;100893.91;5032945;28;20045;-82
2021/10/04 06:00:43;;;;;;;4.07;2.67;;;;;;;13.83;nan;100892.69;5019568;28;20061;-82
2021/10/04 06:03:10;;;;;;;3.47;2.17;;;;;;;13.75;nan;100900.03;5037021;28;20057;-82
2021/10/04 06:05:37;;;;;;;3.40;2.15;;;;;;;13.69;nan;100911.69;5054544;28;20048;-81
2021/10/04 06:08:04;;;;;;;3.72;2.45;;;;;;;13.72;nan;100910.75;5025906;28;20048;-83
2021/10/04 06:10:31;;;;;;;3.67;2.28;;;;;;;13.72;nan;100916.06;5024074;28;20045;-83
2021/10/04 06:12:58;;;;;;;3.13;2.00;;;;;;;13.67;nan;100908.22;5012480;28;20072;-82
2021/10/04 06:15:25;;;;;;;2.55;1.98;;;;;;;13.67;nan;100910.00;5024061;28;20040;-82
2021/10/04 06:17:52;;;;;;;3.08;1.90;;;;;;;13.65;nan;100917.16;5010158;28;20399;-83
2021/10/04 06:20:18;;;;;;;2.30;1.65;;;;;;;13.64;nan;100912.75;5023034;28;20040;-83
2021/10/04 06:22:45;;;;;;;1.77;1.50;;;;;;;13.64;nan;100907.44;5007972;28;20109;-82
2021/10/04 06:25:14;;;;;;;2.10;1.45;;;;;;;13.65;nan;100904.75;5023275;28;20559;-83
2021/10/04 06:27:43;;;;;;;3.38;1.77;;;;;;;13.69;nan;100913.47;5017059;28;20046;-81
2021/10/04 06:30:14;;;;;;;3.10;1.92;;;;;;;13.70;nan;100925.84;5001401;28;20037;-81
2021/10/04 06:32:40;;;;;;;3.15;1.92;;;;;;;13.67;nan;100923.28;5016136;28;20437;-81
2021/10/04 06:35:08;;;;;;;2.08;1.60;;;;;;;13.71;nan;100943.53;5001407;28;20053;-81
2021/10/04 06:37:35;;;;;;;1.85;1.15;;;;;;;13.76;nan;100950.44;5083426;23;20066;-79
2021/10/04 06:40:02;;;;;;;1.30;1.20;;;;;;;13.78;nan;100953.03;5052911;28;20480;-80
2021/10/04 06:42:29;;;;;;;1.65;1.20;;;;;;;13.82;nan;100960.00;5036857;28;20584;-80
2021/10/04 06:44:56;;;;;;;2.08;1.30;;;;;;;13.85;nan;100959.03;5050933;28;20387;-80
2021/10/04 06:47:24;;;;;;;1.50;1.20;;;;;;;13.90;nan;100957.13;5049293;28;20041;-80
2021/10/04 06:49:51;;;;;;;2.15;1.17;;;;;;;13.93;nan;100960.56;5018170;28;20470;-80
2021/10/04 06:52:18;;;;;;;1.90;1.50;;;;;;;13.97;nan;100962.22;5024877;28;20059;-80
2021/10/04 06:54:45;;;;;;;1.80;1.33;;;;;;;14.02;nan;100965.59;5049102;28;20040;-80
2021/10/04 06:57:13;;;;;;;2.75;1.80;;;;;;;14.11;nan;100968.91;5032568;28;20053;-80
2021/10/04 06:59:40;;;;;;;1.95;1.50;;;;;;;14.11;nan;100975.06;5032854;28;20033;-80
2021/10/04 07:02:09;;;;;;;2.03;1.48;;;;;;;14.15;nan;100973.22;5067010;28;20045;-81
2021/10/04 07:04:36;;;;;;;3.08;1.90;;;;;;;14.11;nan;100976.88;5047457;28;20521;-82
2021/10/04 07:07:03;;;;;;;1.80;1.25;;;;;;;14.11;nan;100971.56;5019591;28;20053;-81
2021/10/04 07:09:30;;;;;;;3.28;1.70;;;;;;;14.15;nan;100973.22;5020465;28;20059;-81
2021/10/04 07:11:57;;;;;;;2.17;1.20;;;;;;;14.14;nan;100980.31;5019481;28;20420;-82
2021/10/04 07:14:24;;;;;;;1.40;1.10;;;;;;;14.17;nan;100979.34;5036946;28;20040;-82
2021/10/04 07:16:50;;;;;;;1.92;1.20;;;;;;;14.20;nan;100976.59;5036089;28;20102;-82
2021/10/04 07:19:18;;;;;;;2.30;1.50;;;;;;;14.19;nan;100975.72;5036507;28;20098;-81
2021/10/04 07:21:51;;;;;;;1.92;1.25;;;;;;;14.25;nan;100970.22;5036773;28;20041;-81
2021/10/04 07:24:21;;;;;;;2.67;1.30;;;;;;;14.24;nan;100975.59;5036383;28;20494;-82
2021/10/04 07:26:49;;;;;;;1.35;1.13;;;;;;;14.25;nan;100972.00;5051443;28;20544;-81
2021/10/04 07:29:17;;;;;;;1.65;1.30;;;;;;;14.27;nan;100967.50;5036201;28;20041;-80
2021/10/04 07:31:45;;;;;;;2.33;1.25;;;;;;;14.29;nan;100976.31;5053098;28;20036;-83
2021/10/04 07:34:12;;;;;;;1.73;0.93;;;;;;;14.30;nan;100986.91;5052841;28;20090;-81
2021/10/04 07:36:38;;;;;;;2.40;1.30;;;;;;;14.39;nan;100993.75;5052528;28;20135;-81
2021/10/04 07:39:07;;;;;;;1.77;1.00;;;;;;;14.24;nan;100996.84;5031060;28;20086;-81
2021/10/04 07:41:34;;;;;;;1.00;0.90;;;;;;;14.15;nan;101000.66;5051026;28;20094;-80
2021/10/04 07:44:01;;;;;;;1.23;1.05;;;;;;;14.19;nan;101001.44;4999005;28;20493;-81
2021/10/04 07:46:28;;;;;;;1.50;1.17;;;;;;;14.14;nan;101006.03;5032985;28;20037;-81
2021/10/04 07:48:56;;;;;;;1.58;1.15;;;;;;;14.14;nan;101009.56;5015265;28;20506;-82
2021/10/04 07:51:23;;;;;;;1.35;1.20;;;;;;;14.17;nan;101013.91;5032939;28;20041;-82
2021/10/04 07:53:51;;;;;;;3.10;2.80;;;;;;;14.20;nan;101013.78;5015005;28;20037;-81
2021/10/04 07:56:19;;;;;;;5.70;3.47;;;;;;;14.20;nan;101008.47;5053830;28;20628;-81
2021/10/04 07:58:45;;;;;;;3.80;3.17;;;;;;;14.22;nan;101009.31;5034721;28;20037;-80
2021/10/04 08:01:13;;;;;;;4.35;3.80;;;;;;;14.20;nan;101024.41;5034739;28;20737;-82
2021/10/04 08:03:40;;;;;;;3.78;2.92;;;;;;;14.21;nan;101034.13;5021530;28;20132;-82
2021/10/04 08:06:08;;;;;;;3.28;2.60;;;;;;;14.22;nan;101041.22;5052569;28;20036;-82
2021/10/04 08:08:35;;;;;;;3.50;2.20;;;;;;;14.25;nan;101043.78;5015477;28;20040;-80
2021/10/04 08:11:02;;;;;;;2.22;2.03;;;;;;;14.23;nan;101035.84;5032209;28;20053;-81
2021/10/04 08:13:29;;;;;;;2.90;1.90;;;;;;;14.27;nan;101044.59;5032995;28;20059;-83
2021/10/04 08:15:56;;;;;;;2.50;2.28;;;;;;;14.27;nan;101033.97;5032435;28;20047;-81
2021/10/04 08:18:26;;;;;;;3.17;1.92;;;;;;;14.40;nan;101032.69;5022326;28;20454;-83
2021/10/04 08:20:52;;;;;;;3.45;2.35;;;;;;;14.39;nan;101028.28;5019063;28;20068;-80
2021/10/04 08:23:19;;;;;;;2.30;1.95;;;;;;;14.40;nan;101031.81;5034668;28;20041;-80
2021/10/04 08:25:46;;;;;;;2.55;1.90;;;;;;;14.47;nan;101041.38;5035645;28;20509;-80
2021/10/04 08:28:12;;;;;;;2.08;1.70;;;;;;;14.51;nan;101043.03;5050059;28;20106;-81
2021/10/04 08:30:39;;;;;;;2.67;1.45;;;;;;;14.44;nan;101050.28;5039758;28;20073;-80
2021/10/04 08:33:06;;;;;;;1.30;1.20;;;;;;;14.43;nan;101027.25;5016205;28;20040;-80
2021/10/04 08:35:33;;;;;;;1.27;1.17;;;;;;;14.42;nan;101038.81;5052464;28;20040;-81
2021/10/04 08:38:00;;;;;;;1.00;0.90;;;;;;;14.45;nan;101056.47;5024771;28;20037;-81
2021/10/04 08:40:27;;;;;;;1.33;0.90;;;;;;;14.47;nan;101058.22;5043677;28;20093;-82
2021/10/04 08:42:54;;;;;;;1.50;1.30;;;;;;;14.40;nan;101061.94;5045069;28;20121;-81
2021/10/04 08:45:26;;;;;;;3.65;1.95;;;;;;;14.40;nan;101064.59;5019247;28;20045;-81
2021/10/04 08:47:58;;;;;;;36.35;23.33;;;;;;;14.46;nan;101058.22;5034216;28;20083;-81
2021/10/04 08:50:28;;;;;;;78.82;52.00;;;;;;;14.42;nan;101064.53;5035215;28;20443;-80
2021/10/04 08:52:55;;;;;;;41.38;32.08;;;;;;;14.40;nan;101071.69;5049308;28;20044;-81
2021/10/04 08:55:22;;;;;;;23.35;20.85;;;;;;;14.37;nan;101070.84;5016079;28;20047;-81
2021/10/04 08:57:48;;;;;;;6.72;6.13;;;;;;;14.40;nan;101074.34;5036448;28;20040;-83
2021/10/04 09:00:16;;;;;;;3.05;2.75;;;;;;;14.37;nan;101080.59;5017799;28;20109;-81
2021/10/04 09:02:43;;;;;;;3.53;2.63;;;;;;;14.41;nan;101081.41;5050592;28;20044;-82
2021/10/04 09:05:27;;;;;;;2.65;2.35;;;;;;;14.40;nan;101075.22;5035323;28;20040;-80
2021/10/04 09:08:07;;;;;;;1.65;1.38;;;;;;;14.39;nan;101085.91;5030866;28;20516;-80
2021/10/04 09:10:35;;;;;;;1.50;1.20;;;;;;;14.41;nan;101090.25;5015757;28;20504;-80
2021/10/04 09:13:05;;;;;;;1.90;1.00;;;;;;;14.39;nan;101097.41;5039909;28;20060;-80
2021/10/04 09:15:43;;;;;;;5.13;1.20;;;;;;;14.42;nan;101099.09;5025326;28;20040;-81
2021/10/04 09:18:22;;;;;;;2.15;0.85;;;;;;;14.39;nan;101109.81;5018566;28;20044;-81
2021/10/04 09:20:58;;;;;;;3.28;0.93;;;;;;;14.31;nan;101102.94;5071693;28;20032;-82
2021/10/04 09:23:43;;;;;;;3.40;1.08;;;;;;;14.31;nan;101107.38;5011161;28;20041;-81
2021/10/04 09:26:31;;;;;;;2.40;1.35;;;;;;;14.30;nan;101110.97;5038930;28;20497;-80
2021/10/04 09:29:10;;;;;;;2.83;0.77;;;;;;;14.26;nan;101106.63;5034833;28;20041;-82
2021/10/04 09:31:39;;;;;;;3.63;1.00;;;;;;;14.29;nan;101103.88;5059654;28;20044;-80
2021/10/04 09:34:15;;;;;;;2.38;0.93;;;;;;;14.24;nan;101100.50;5041792;28;20033;-81
2021/10/04 09:36:58;;;;;;;3.20;1.00;;;;;;;14.17;nan;101086.50;5061673;28;20074;-80
2021/10/04 09:39:26;;;;;;;1.85;0.90;;;;;;;14.18;nan;101098.00;5052213;28;20041;-80
2021/10/04 09:42:18;;;;;;;0.80;0.80;;;;;;;14.19;nan;101097.97;5021830;28;20037;-81
2021/10/04 09:44:48;;;;;;;1.83;0.90;;;;;;;14.22;nan;101097.88;5025273;28;20420;-80
2021/10/04 09:47:28;;;;;;;1.75;0.85;;;;;;;14.24;nan;101105.81;5054495;28;20048;-79
2021/10/04 09:50:00;;;;;;;2.08;1.00;;;;;;;14.28;nan;101104.78;5054683;28;20505;-79
2021/10/04 09:52:49;;;;;;;9.45;1.48;;;;;;;14.28;nan;101107.44;5037162;28;20041;-79
2021/10/04 09:55:26;;;;;;;2.80;1.00;;;;;;;14.32;nan;101109.13;5038496;28;20037;-80
2021/10/04 09:57:53;;;;;;;1.98;0.88;;;;;;;14.33;nan;101093.13;5037199;28;20119;-80
2021/10/04 10:00:20;;;;;;;1.48;1.00;;;;;;;14.37;nan;101108.06;5054508;28;20082;-80
2021/10/04 10:02:54;;;;;;;1.10;0.80;;;;;;;14.34;nan;101113.47;5020926;28;20072;-80
2021/10/04 10:05:23;;;;;;;0.90;0.88;;;;;;;14.36;nan;101124.91;5036347;28;20080;-79
2021/10/04 10:07:49;;;;;;;1.30;1.00;;;;;;;14.35;nan;101120.53;5053451;28;20033;-79
2021/10/04 10:10:33;;;;;;;1.80;1.13;;;;;;;14.38;nan;101124.91;5053982;28;20505;-80
2021/10/04 10:13:00;;;;;;;1.73;1.20;;;;;;;14.36;nan;101132.03;5053683;28;20489;-79
2021/10/04 10:15:29;;;;;;;3.47;1.00;;;;;;;14.33;nan;101133.00;5018149;28;20045;-79
2021/10/04 10:18:16;;;;;;;1.65;1.10;;;;;;;14.31;nan;101133.97;5017095;28;20505;-79
2021/10/04 10:20:44;;;;;;;1.88;1.35;;;;;;;14.35;nan;101135.59;5033925;28;20047;-79
2021/10/04 10:23:11;;;;;;;2.03;1.00;;;;;;;14.35;nan;101132.94;5033252;28;20128;-80
2021/10/04 10:25:41;;;;;;;1.00;0.80;;;;;;;14.31;nan;101120.69;5036935;28;20048;-80
2021/10/04 10:28:31;;;;;;;1.20;1.00;;;;;;;14.34;nan;101123.22;5019694;28;20566;-79
2021/10/04 10:30:58;;;;;;;3.88;0.90;;;;;;;14.39;nan;101125.78;5042363;28;20043;-79
2021/10/04 10:33:47;;;;;;;2.00;1.08;;;;;;;14.43;nan;101119.44;5036708;28;20051;-80
2021/10/04 10:36:18;;;;;;;2.42;1.20;;;;;;;14.46;nan;101114.97;5028876;28;20094;-79
2021/10/04 10:39:00;;;;;;;2.53;1.00;;;;;;;14.52;nan;101113.88;5016527;28;20049;-79
2021/10/04 10:41:28;;;;;;;3.20;1.00;;;;;;;14.70;nan;101123.09;5052601;28;20176;-79
2021/10/04 10:44:12;;;;;;;1.38;0.93;;;;;;;14.70;nan;101121.31;5035613;28;20064;-81
2021/10/04 10:46:50;;;;;;;1.27;1.00;;;;;;;14.77;nan;101122.00;5055056;28;20517;-80
2021/10/04 10:49:55;;;;;;;1.73;1.13;;;;;;;14.86;nan;101121.72;5070607;28;20436;-80
2021/10/04 10:52:24;;;;;;;1.17;0.88;;;;;;;14.91;nan;101114.47;5071509;28;20458;-80
2021/10/04 10:54:52;;;;;;;2.47;1.20;;;;;;;14.97;nan;101113.44;5031369;28;20059;-81
2021/10/04 10:57:24;;;;;;;1.90;1.02;;;;;;;15.11;nan;101117.38;5007635;28;20056;-80
2021/10/04 11:00:33;;;;;;;2.42;1.63;;;;;;;15.24;nan;101127.63;5033293;28;20044;-79
2021/10/04 11:03:19;;;;;;;1.55;0.90;;;;;;;15.11;nan;101117.38;5039923;28;20045;-80
2021/10/04 11:06:10;;;;;;;1.23;0.90;;;;;;;15.11;nan;101121.81;5034431;28;20048;-79
2021/10/04 11:08:43;;;;;;;2.08;1.02;;;;;;;15.11;nan;101127.16;5036242;28;20406;-80
2021/10/04 11:11:17;;;;;;;2.25;1.20;;;;;;;15.06;nan;101134.41;5068495;28;20040;-79
2021/10/04 11:13:58;;;;;;;2.63;1.13;;;;;;;15.01;nan;101134.56;5015595;28;20045;-79
2021/10/04 11:16:24;;;;;;;2.15;1.20;;;;;;;15.02;nan;101140.75;5019253;28;20406;-79
2021/10/04 11:18:55;;;;;;;2.38;2.17;;;;;;;14.97;nan;101134.72;5020881;28;20401;-78
2021/10/04 11:21:25;;;;;;;4.13;1.48;;;;;;;15.07;nan;101146.81;5052944;28;20602;-79
2021/10/04 11:24:01;;;;;;;1.63;1.52;;;;;;;14.90;nan;101144.66;5035064;28;20688;-80
2021/10/04 11:26:29;;;;;;;2.88;1.50;;;;;;;14.82;nan;101144.91;5045418;28;20114;-79
2021/10/04 11:29:00;;;;;;;1.50;1.15;;;;;;;14.80;nan;101153.84;5026139;28;20363;-80
2021/10/04 11:31:35;;;;;;;1.63;1.30;;;;;;;14.81;nan;101144.94;5017869;28;20033;-80
2021/10/04 11:34:08;;;;;;;3.17;1.35;;;;;;;14.82;nan;101138.69;5032535;28;20040;-79
2021/10/04 11:36:39;;;;;;;2.13;1.23;;;;;;;14.81;nan;101144.94;5032975;28;20089;-80
2021/10/04 11:39:10;;;;;;;2.58;1.13;;;;;;;14.77;nan;101145.94;5048726;28;20064;-79
2021/10/04 11:41:44;;;;;;;2.15;1.52;;;;;;;14.74;nan;101144.25;5010239;28;20037;-81
2021/10/04 11:44:23;;;;;;;1.88;1.30;;;;;;;14.72;nan;101137.25;5046055;28;20044;-80
2021/10/04 11:46:52;;;;;;;2.38;1.50;;;;;;;14.67;nan;101148.00;5030786;28;20131;-82